Nankin, Ohio
Current Conditions -  °F | °C
As of 1:52 PM on Monday 20 Oct 2014 (Local Time) from KMFD Reporting Station
Overcast Overcast  
Wind Chill: 55°   Ceiling: 7000
Heat Index: 55°   Visibility: 10mi
Dew Point: 49°   Wind: 8mph
Humidity: 80%   Direction: 190°S
Pressure: 29.85"   Gusts: NA
Location:  40.92°N, 82.28°W
Report Text: KMFD 201752Z 19007KT 10SM OVC070 13/09 A2985 RMK AO2 RAE04B23E48 SLP110 P0001 60001 T01280094 10133 20078 58022
Loading
Personal Weather Stations






























Interactive Weather Map
Tropical Storm Tracking
New forecast layout! Learn more

10-Day Weather Forecast

Advertisements
Track Severe Weather on mobile